KEST/EST METAR and TAF weather

Enter ICAO airport designator
Station Type Date Time Source
KEST METAR 2021/04/13 06:52 UTC NOAA

KEST 130652Z AUTO 31017G32KT 10SM OVC034 02/M04 A3005 RMK AO2 PK WND 31037/0617 SLP185 T00171044


Station Type Date Time Source
KEST Decoded METAR 2021/04/13 06:52 UTC NOAA

ESTHERVILLE MUNICIPAL AIRPORT , IA, United States (KEST) 43-24N 94-45W 401M
Apr 13, 2021 - 02:52 AM EDT / 2021.04.13 0652 UTC
Wind: from the NW (310 degrees) at 20 MPH (17 KT) gusting to 37 MPH (32 KT):0
Visibility: 10 mile(s):0
Sky conditions: overcast
Temperature: 35.1 F (1.7 C)
Dew Point: 24.1 F (-4.4 C)
Relative Humidity: 63%
Pressure (altimeter): 30.05 in. Hg (1017 hPa)
ob: KEST 130652Z AUTO 31017G32KT 10SM OVC034 02/M04 A3005 RMK AO2 PK WND 31037/0617 SLP185 T00171044
cycle: 7

Station Type Date Time Source
KEST TAF UTC NOAA

Error!

Example: see airport list